Time;durP1;ratioP1;P1;durP2;ratioP2;P2;SDS_P1;SDS_P2;PMS_P1;PMS_P2;Temp;Humidity;BMP_temperature;BMP_pressure;BME280_temperature;BME280_humidity;BME280_pressure;Samples;Min_cycle;Max_cycle;Signal;HPM_P1;HPM_P2
2021/10/16 00:00:37;;;;;;;11.18;6.82;;;10.10;99.90;;;;;;5067933;28;20102;-77
2021/10/16 00:03:03;;;;;;;12.52;6.80;;;10.20;99.90;;;;;;5068558;28;20043;-76
2021/10/16 00:05:29;;;;;;;9.88;6.30;;;10.20;99.90;;;;;;5055685;28;20047;-76
2021/10/16 00:07:54;;;;;;;11.13;7.60;;;10.10;99.90;;;;;;5064077;28;20036;-80
2021/10/16 00:10:21;;;;;;;11.18;6.72;;;10.10;99.90;;;;;;5050933;28;20029;-79
2021/10/16 00:12:47;;;;;;;11.52;6.38;;;10.10;99.90;;;;;;5061952;28;20031;-82
2021/10/16 00:15:13;;;;;;;11.45;6.60;;;10.10;99.90;;;;;;5066012;28;20120;-80
2021/10/16 00:17:38;;;;;;;11.30;6.80;;;10.10;99.90;;;;;;5065099;28;20481;-77
2021/10/16 00:20:06;;;;;;;10.60;5.63;;;10.10;99.90;;;;;;5068472;28;20123;-77
2021/10/16 00:22:32;;;;;;;14.48;5.80;;;10.10;99.90;;;;;;5066146;28;20056;-79
2021/10/16 00:24:58;;;;;;;11.70;6.22;;;10.10;99.90;;;;;;5070405;28;20075;-81
2021/10/16 00:27:23;;;;;;;12.30;6.75;;;10.10;99.90;;;;;;5068533;28;20025;-77
2021/10/16 00:29:49;;;;;;;12.65;5.75;;;10.10;99.90;;;;;;5066621;28;20035;-81
2021/10/16 00:32:14;;;;;;;12.43;6.18;;;10.10;99.90;;;;;;5065478;28;20032;-78
2021/10/16 00:34:40;;;;;;;13.10;6.72;;;10.10;99.90;;;;;;5066920;28;20397;-80
2021/10/16 00:37:06;;;;;;;9.43;4.97;;;10.00;99.90;;;;;;5066843;28;20038;-78
2021/10/16 00:39:31;;;;;;;9.68;5.40;;;10.10;99.90;;;;;;5066388;28;20367;-80
2021/10/16 00:41:57;;;;;;;8.55;5.53;;;10.10;99.90;;;;;;5066848;28;20024;-81
2021/10/16 00:44:24;;;;;;;11.60;5.68;;;10.10;99.90;;;;;;5048082;28;20155;-82
2021/10/16 00:46:53;;;;;;;9.85;5.38;;;10.10;99.90;;;;;;5050614;28;20021;-82
2021/10/16 00:49:18;;;;;;;11.13;5.75;;;10.10;99.90;;;;;;5051579;28;20040;-82
2021/10/16 00:51:44;;;;;;;13.38;5.22;;;10.10;99.90;;;;;;5066953;28;20139;-79
2021/10/16 00:54:11;;;;;;;10.98;5.65;;;10.10;99.90;;;;;;5068175;28;20377;-82
2021/10/16 00:56:42;;;;;;;11.07;4.95;;;10.10;99.90;;;;;;5066209;28;20063;-78
2021/10/16 00:59:07;;;;;;;12.30;5.15;;;10.10;99.90;;;;;;5065355;28;20028;-81
2021/10/16 01:01:34;;;;;;;9.00;5.13;;;10.10;99.90;;;;;;5064883;28;20027;-78
2021/10/16 01:04:01;;;;;;;12.05;4.60;;;10.10;99.90;;;;;;5060030;28;20493;-79
2021/10/16 01:06:28;;;;;;;13.82;4.88;;;10.20;99.90;;;;;;5067570;28;20489;-81
2021/10/16 01:08:55;;;;;;;10.13;4.47;;;10.20;99.90;;;;;;5060869;28;20060;-78
2021/10/16 01:11:34;;;;;;;11.10;4.35;;;10.20;99.90;;;;;;5055652;28;20035;-81
2021/10/16 01:14:05;;;;;;;11.60;4.97;;;10.20;99.90;;;;;;5065585;28;20131;-80
2021/10/16 01:16:31;;;;;;;13.68;4.47;;;10.20;99.90;;;;;;5066666;28;20032;-77
2021/10/16 01:18:57;;;;;;;10.18;3.90;;;10.20;99.90;;;;;;5070204;28;20029;-81
2021/10/16 01:21:23;;;;;;;8.18;4.07;;;10.20;99.90;;;;;;5069715;28;20044;-80
2021/10/16 01:23:49;;;;;;;7.88;3.97;;;10.10;99.90;;;;;;5068026;28;20090;-80
2021/10/16 01:26:15;;;;;;;11.40;4.07;;;10.10;99.90;;;;;;5068297;28;20024;-78
2021/10/16 01:28:42;;;;;;;12.13;4.95;;;10.20;99.90;;;;;;5068432;28;20103;-79
2021/10/16 01:31:08;;;;;;;12.30;5.55;;;10.10;99.90;;;;;;5069482;28;20036;-78
2021/10/16 01:33:34;;;;;;;7.70;4.63;;;10.10;99.90;;;;;;5068276;28;20112;-80
2021/10/16 01:36:05;;;;;;;14.40;5.18;;;10.10;99.90;;;;;;5068171;28;20100;-80
2021/10/16 01:38:31;;;;;;;14.90;5.05;;;10.10;99.90;;;;;;5059342;28;20041;-77
2021/10/16 01:40:58;;;;;;;11.27;4.70;;;10.10;99.90;;;;;;5067778;28;20103;-76
2021/10/16 01:43:24;;;;;;;9.27;4.80;;;10.10;99.90;;;;;;5069814;28;20107;-77
2021/10/16 01:45:52;;;;;;;11.23;4.55;;;10.10;99.90;;;;;;5065993;28;20123;-78
2021/10/16 01:48:22;;;;;;;12.98;5.28;;;10.10;99.90;;;;;;5055215;28;20077;-77
2021/10/16 01:50:50;;;;;;;11.43;5.38;;;10.10;99.90;;;;;;5067678;28;20114;-79
2021/10/16 01:53:16;;;;;;;13.32;5.55;;;10.10;99.90;;;;;;5069177;28;20032;-80
2021/10/16 01:55:42;;;;;;;11.60;4.68;;;10.10;99.90;;;;;;5067474;28;20037;-77
2021/10/16 01:58:10;;;;;;;10.25;5.00;;;10.20;99.90;;;;;;5070783;28;20229;-81
2021/10/16 02:00:36;;;;;;;9.77;4.82;;;10.10;99.90;;;;;;5054057;28;20044;-78
2021/10/16 02:03:09;;;;;;;12.15;5.75;;;10.10;99.90;;;;;;5047221;28;20058;-77
2021/10/16 02:05:39;;;;;;;16.10;6.40;;;10.10;99.90;;;;;;5069204;28;20036;-78
2021/10/16 02:08:05;;;;;;;14.07;6.90;;;10.10;99.90;;;;;;5069801;28;20017;-78
2021/10/16 02:10:31;;;;;;;12.35;5.65;;;10.10;99.90;;;;;;5051298;28;20028;-80
2021/10/16 02:12:57;;;;;;;8.95;5.55;;;10.10;99.90;;;;;;5070612;28;20032;-79
2021/10/16 02:15:22;;;;;;;12.50;5.95;;;10.10;99.90;;;;;;5067713;28;20032;-78
2021/10/16 02:17:48;;;;;;;15.57;6.38;;;10.10;99.90;;;;;;5067668;28;20507;-79
2021/10/16 02:20:13;;;;;;;12.02;5.50;;;10.00;99.90;;;;;;5068603;28;20021;-76
2021/10/16 02:22:39;;;;;;;12.00;6.88;;;10.10;99.90;;;;;;5068238;28;20032;-76
2021/10/16 02:25:05;;;;;;;12.80;6.00;;;10.10;99.90;;;;;;5069534;28;20153;-78
2021/10/16 02:27:31;;;;;;;21.60;7.68;;;10.10;99.90;;;;;;5066439;28;20032;-78
2021/10/16 02:29:56;;;;;;;19.13;6.95;;;10.10;99.90;;;;;;5047936;28;20077;-77
2021/10/16 02:32:22;;;;;;;13.60;6.43;;;10.00;99.90;;;;;;5067731;28;20039;-78
2021/10/16 02:34:47;;;;;;;11.13;5.80;;;10.10;99.90;;;;;;5071260;28;20413;-77
2021/10/16 02:37:13;;;;;;;12.50;6.00;;;10.00;99.90;;;;;;5070919;28;20024;-77
2021/10/16 02:39:39;;;;;;;11.63;6.22;;;10.00;99.90;;;;;;5069751;28;20028;-77
2021/10/16 02:42:05;;;;;;;13.52;5.93;;;10.10;99.90;;;;;;5072104;28;20381;-79
2021/10/16 02:44:30;;;;;;;14.93;6.03;;;10.00;99.90;;;;;;5053956;28;20024;-80
2021/10/16 02:46:56;;;;;;;15.02;5.72;;;10.00;99.90;;;;;;5069735;28;20029;-77
2021/10/16 02:49:22;;;;;;;13.00;5.10;;;10.10;99.90;;;;;;5073052;28;20044;-80
2021/10/16 02:51:48;;;;;;;12.85;5.75;;;10.00;99.90;;;;;;5070512;28;20046;-77
2021/10/16 02:54:14;;;;;;;15.35;5.75;;;10.00;99.90;;;;;;5070947;28;20502;-79
2021/10/16 02:56:40;;;;;;;17.10;6.20;;;9.90;99.90;;;;;;5070203;28;20078;-80
2021/10/16 02:59:06;;;;;;;14.20;5.50;;;9.80;99.90;;;;;;5058385;28;20606;-77
2021/10/16 03:01:31;;;;;;;17.55;6.90;;;9.80;99.90;;;;;;5071023;28;20017;-81
2021/10/16 03:03:57;;;;;;;19.17;6.57;;;9.80;99.90;;;;;;5074470;28;20031;-77
2021/10/16 03:06:22;;;;;;;14.02;5.07;;;9.70;99.90;;;;;;5072152;28;20028;-81
2021/10/16 03:08:48;;;;;;;9.50;4.78;;;9.90;99.90;;;;;;5070037;28;20032;-80
2021/10/16 03:11:14;;;;;;;15.23;4.78;;;9.80;99.90;;;;;;5070632;28;20028;-78
2021/10/16 03:13:39;;;;;;;12.25;4.55;;;9.90;99.90;;;;;;5064473;28;20048;-81
2021/10/16 03:16:05;;;;;;;7.95;4.22;;;9.90;99.90;;;;;;5072558;28;20040;-81
2021/10/16 03:18:31;;;;;;;7.85;3.90;;;9.90;99.90;;;;;;5069863;28;20068;-78
2021/10/16 03:20:57;;;;;;;10.02;4.97;;;9.90;99.90;;;;;;5072332;28;20025;-81
2021/10/16 03:23:23;;;;;;;12.55;4.65;;;9.90;99.90;;;;;;5069748;28;20488;-81
2021/10/16 03:25:48;;;;;;;12.52;4.00;;;9.90;99.90;;;;;;5070430;28;20041;-77
2021/10/16 03:28:14;;;;;;;14.02;4.72;;;9.90;99.90;;;;;;5057705;28;20047;-79
2021/10/16 03:30:40;;;;;;;12.45;4.40;;;9.90;99.90;;;;;;5069626;28;20408;-77
2021/10/16 03:33:06;;;;;;;10.32;4.57;;;9.90;99.90;;;;;;5067009;28;20380;-77
2021/10/16 03:35:32;;;;;;;11.98;4.30;;;9.90;99.90;;;;;;5068395;28;20542;-81
2021/10/16 03:37:58;;;;;;;9.45;4.45;;;9.90;99.90;;;;;;5066361;28;20049;-81
2021/10/16 03:40:24;;;;;;;12.30;4.38;;;9.90;99.90;;;;;;5052701;28;20059;-78
2021/10/16 03:42:50;;;;;;;10.23;3.78;;;9.90;99.90;;;;;;5053990;28;20027;-77
2021/10/16 03:45:15;;;;;;;11.25;5.15;;;9.90;99.90;;;;;;5067395;28;20071;-81
2021/10/16 03:47:41;;;;;;;18.48;5.63;;;9.90;99.90;;;;;;5067045;28;20023;-77
2021/10/16 03:50:07;;;;;;;9.55;4.70;;;9.90;99.90;;;;;;5067632;28;20114;-80
2021/10/16 03:52:33;;;;;;;16.05;5.70;;;9.90;99.90;;;;;;5068072;28;20029;-80
2021/10/16 03:54:59;;;;;;;13.07;5.72;;;9.90;99.90;;;;;;5072208;28;20097;-81
2021/10/16 03:57:25;;;;;;;19.38;5.53;;;9.90;99.90;;;;;;5065705;28;20421;-80
2021/10/16 03:59:51;;;;;;;14.35;5.07;;;10.00;99.90;;;;;;5067491;28;20056;-77
2021/10/16 04:02:18;;;;;;;11.95;4.90;;;10.00;99.90;;;;;;5065248;28;20064;-78
2021/10/16 04:04:44;;;;;;;14.35;5.28;;;9.90;99.90;;;;;;5067186;28;20052;-76
2021/10/16 04:07:10;;;;;;;11.50;5.47;;;9.90;99.90;;;;;;5072308;28;20067;-79
2021/10/16 04:09:35;;;;;;;12.98;4.97;;;9.90;99.90;;;;;;5065260;28;20052;-79
2021/10/16 04:12:01;;;;;;;14.85;5.60;;;9.90;99.90;;;;;;5063808;28;20047;-76
2021/10/16 04:14:27;;;;;;;11.90;5.32;;;9.90;99.90;;;;;;5066942;28;20089;-76
2021/10/16 04:16:53;;;;;;;12.80;5.85;;;9.90;99.90;;;;;;5051108;28;20021;-80
2021/10/16 04:19:18;;;;;;;10.40;4.57;;;9.90;99.90;;;;;;5071112;28;20032;-77
2021/10/16 04:21:44;;;;;;;14.23;5.28;;;9.80;99.90;;;;;;5068594;28;20055;-77
2021/10/16 04:24:09;;;;;;;15.45;5.28;;;9.80;99.90;;;;;;5066203;28;20049;-77
2021/10/16 04:26:35;;;;;;;8.63;3.75;;;9.80;99.90;;;;;;5064497;28;20061;-78
2021/10/16 04:29:01;;;;;;;11.07;4.63;;;9.80;99.90;;;;;;5066342;28;20029;-79
2021/10/16 04:31:26;;;;;;;9.50;4.35;;;9.80;99.90;;;;;;5067817;28;20063;-83
2021/10/16 04:33:52;;;;;;;11.90;4.60;;;9.80;99.90;;;;;;5070052;28;20090;-81
2021/10/16 04:36:17;;;;;;;13.48;4.70;;;9.80;99.90;;;;;;5067613;28;20032;-77
2021/10/16 04:38:48;;;;;;;13.55;4.75;;;9.80;99.90;;;;;;5069860;28;20529;-77
2021/10/16 04:41:14;;;;;;;15.23;5.07;;;9.80;99.90;;;;;;5062602;28;20025;-80
2021/10/16 04:43:41;;;;;;;11.02;3.83;;;9.80;99.90;;;;;;5066736;28;20040;-80
2021/10/16 04:46:10;;;;;;;13.95;4.63;;;9.80;99.90;;;;;;5066287;28;20038;-79
2021/10/16 04:48:41;;;;;;;10.00;4.03;;;9.80;99.90;;;;;;5066447;28;20428;-76
2021/10/16 04:51:07;;;;;;;14.05;5.63;;;9.80;99.90;;;;;;5067673;28;20032;-77
2021/10/16 04:53:33;;;;;;;12.40;4.18;;;9.80;99.90;;;;;;5064067;28;20150;-80
2021/10/16 04:55:58;;;;;;;14.65;5.57;;;9.80;99.90;;;;;;5064753;28;20470;-78
2021/10/16 04:58:24;;;;;;;11.07;3.53;;;9.80;99.90;;;;;;5068041;28;20035;-77
2021/10/16 05:00:50;;;;;;;10.43;4.20;;;9.80;99.90;;;;;;5065282;28;20070;-81
2021/10/16 05:03:15;;;;;;;10.35;4.55;;;9.80;99.90;;;;;;5066107;28;20543;-82
2021/10/16 05:05:41;;;;;;;15.43;4.65;;;9.80;99.90;;;;;;5048190;28;20036;-78
2021/10/16 05:08:07;;;;;;;12.13;4.07;;;9.80;99.90;;;;;;5066236;28;20028;-77
2021/10/16 05:10:33;;;;;;;11.15;4.90;;;9.80;99.90;;;;;;5065299;28;20489;-80
2021/10/16 05:12:59;;;;;;;11.93;4.25;;;9.80;99.90;;;;;;5069786;28;20028;-77
2021/10/16 05:15:25;;;;;;;13.35;4.45;;;9.80;99.90;;;;;;5063761;28;20028;-77
2021/10/16 05:17:51;;;;;;;10.93;4.05;;;9.80;99.90;;;;;;5065621;28;20058;-76
2021/10/16 05:20:17;;;;;;;11.57;4.13;;;9.80;99.90;;;;;;5066169;28;20020;-77
2021/10/16 05:22:42;;;;;;;11.80;4.43;;;9.80;99.90;;;;;;5064487;28;20024;-77
2021/10/16 05:25:10;;;;;;;9.05;3.47;;;9.80;99.90;;;;;;5070648;28;20049;-79
2021/10/16 05:27:37;;;;;;;16.75;4.53;;;9.80;99.90;;;;;;5065523;28;20029;-78
2021/10/16 05:30:03;;;;;;;10.23;3.95;;;9.80;99.90;;;;;;5069149;28;20021;-79
2021/10/16 05:32:28;;;;;;;12.50;4.10;;;9.80;99.90;;;;;;5065817;28;20029;-81
2021/10/16 05:34:54;;;;;;;13.65;4.78;;;9.80;99.90;;;;;;5065454;28;20025;-78
2021/10/16 05:37:20;;;;;;;9.88;3.40;;;9.80;99.90;;;;;;5065851;28;20056;-78
2021/10/16 05:39:45;;;;;;;14.23;3.97;;;9.80;99.90;;;;;;5068722;28;20039;-77
2021/10/16 05:42:11;;;;;;;11.65;3.70;;;9.80;99.90;;;;;;5065178;28;20025;-79
2021/10/16 05:44:37;;;;;;;12.40;3.97;;;9.80;99.90;;;;;;5065730;28;20032;-79
2021/10/16 05:47:02;;;;;;;20.73;4.20;;;9.80;99.90;;;;;;5065710;28;20112;-78
2021/10/16 05:49:28;;;;;;;10.30;4.05;;;9.80;99.90;;;;;;5067401;28;20025;-79
2021/10/16 05:51:54;;;;;;;9.82;3.20;;;9.90;99.90;;;;;;5068529;28;20028;-80
2021/10/16 05:54:19;;;;;;;12.05;3.58;;;9.90;99.90;;;;;;5067406;28;20016;-77
2021/10/16 05:56:45;;;;;;;12.65;3.92;;;9.90;99.90;;;;;;5067759;28;20021;-76
2021/10/16 05:59:11;;;;;;;11.07;3.60;;;9.90;99.90;;;;;;5068198;28;20520;-81
2021/10/16 06:01:36;;;;;;;16.10;3.80;;;9.90;99.90;;;;;;5068441;28;20025;-81
2021/10/16 06:04:02;;;;;;;13.68;4.00;;;9.90;99.90;;;;;;5066418;28;20032;-77
2021/10/16 06:06:27;;;;;;;11.52;4.07;;;10.00;99.90;;;;;;5065442;28;20485;-82
2021/10/16 06:08:53;;;;;;;9.50;3.42;;;9.90;99.90;;;;;;5071191;28;20029;-76
2021/10/16 06:11:19;;;;;;;10.45;3.55;;;10.00;99.90;;;;;;5051833;28;20028;-77
2021/10/16 06:13:44;;;;;;;9.85;3.53;;;10.00;99.90;;;;;;5072108;28;20076;-76
2021/10/16 06:16:10;;;;;;;10.60;3.58;;;10.00;99.90;;;;;;5058467;28;20017;-75
2021/10/16 06:18:35;;;;;;;16.75;3.97;;;10.00;99.90;;;;;;5071834;28;20377;-77
2021/10/16 06:21:03;;;;;;;11.35;3.50;;;10.00;99.90;;;;;;5057915;28;20044;-76
2021/10/16 06:23:29;;;;;;;8.57;3.10;;;10.10;99.90;;;;;;5074362;28;20032;-76
2021/10/16 06:25:55;;;;;;;9.43;3.20;;;10.10;99.90;;;;;;5076430;28;20032;-77
2021/10/16 06:28:21;;;;;;;12.38;3.78;;;10.10;99.90;;;;;;5075061;28;20025;-76
2021/10/16 06:30:46;;;;;;;11.55;3.60;;;10.10;99.90;;;;;;5057339;28;20041;-77
2021/10/16 06:33:12;;;;;;;12.00;3.60;;;10.10;99.90;;;;;;5076072;28;20615;-77
2021/10/16 06:35:38;;;;;;;9.50;3.53;;;10.10;99.90;;;;;;5075674;28;20127;-78
2021/10/16 06:38:04;;;;;;;10.98;4.00;;;10.00;99.90;;;;;;5076647;28;20029;-78
2021/10/16 06:40:31;;;;;;;11.90;3.53;;;10.10;99.90;;;;;;5059485;28;20029;-77
2021/10/16 06:42:56;;;;;;;9.50;3.45;;;10.10;99.90;;;;;;5077174;28;20059;-76
2021/10/16 06:45:22;;;;;;;11.40;4.28;;;10.10;99.90;;;;;;5069761;28;20068;-76
2021/10/16 06:47:48;;;;;;;13.10;3.63;;;10.20;99.90;;;;;;5063530;28;20020;-76
2021/10/16 06:50:13;;;;;;;10.48;3.53;;;10.20;99.90;;;;;;5071706;28;20021;-76
2021/10/16 06:52:39;;;;;;;12.93;3.88;;;10.20;99.90;;;;;;5071855;28;20381;-75
2021/10/16 06:55:05;;;;;;;13.48;3.55;;;10.20;99.90;;;;;;5076551;28;20027;-77
2021/10/16 06:57:31;;;;;;;11.82;3.25;;;10.30;99.90;;;;;;5071271;28;20028;-76
2021/10/16 06:59:56;;;;;;;8.68;3.00;;;10.40;99.90;;;;;;5066886;28;20560;-76
2021/10/16 07:02:22;;;;;;;8.88;2.75;;;10.40;99.90;;;;;;5068124;28;20390;-76
2021/10/16 07:04:47;;;;;;;11.68;2.95;;;10.40;99.90;;;;;;5070011;28;20029;-76
2021/10/16 07:07:13;;;;;;;13.32;3.90;;;10.40;99.90;;;;;;5074293;28;20474;-76
2021/10/16 07:09:39;;;;;;;12.57;3.45;;;10.40;99.90;;;;;;5071039;28;20069;-76
2021/10/16 07:12:07;;;;;;;15.27;4.03;;;10.50;99.90;;;;;;5070352;28;20027;-76
2021/10/16 07:14:33;;;;;;;13.02;3.10;;;10.50;99.90;;;;;;5063794;28;20109;-75
2021/10/16 07:16:59;;;;;;;12.07;3.65;;;10.60;99.90;;;;;;5069731;28;20021;-76
2021/10/16 07:19:24;;;;;;;12.48;3.10;;;10.60;99.90;;;;;;5069280;28;20074;-77
2021/10/16 07:21:50;;;;;;;16.95;4.05;;;10.70;99.90;;;;;;5071593;28;20024;-77
2021/10/16 07:24:16;;;;;;;14.20;3.63;;;10.70;99.90;;;;;;5069788;28;20060;-76
2021/10/16 07:26:42;;;;;;;13.82;3.63;;;10.70;99.90;;;;;;5070033;28;20506;-74
2021/10/16 07:29:07;;;;;;;10.00;3.28;;;10.70;99.90;;;;;;5069593;28;20116;-76
2021/10/16 07:31:33;;;;;;;19.67;4.50;;;10.80;99.90;;;;;;5054550;28;20363;-75
2021/10/16 07:34:00;;;;;;;13.57;3.90;;;10.80;99.90;;;;;;5070565;28;20764;-76
2021/10/16 07:36:32;;;;;;;15.45;4.40;;;10.80;99.90;;;;;;5069700;28;20384;-76
2021/10/16 07:38:58;;;;;;;10.57;4.10;;;10.80;99.90;;;;;;5069128;28;20109;-75
2021/10/16 07:41:23;;;;;;;10.98;4.00;;;10.80;99.90;;;;;;5066796;28;20104;-75
2021/10/16 07:43:49;;;;;;;11.07;4.35;;;10.80;99.90;;;;;;5064527;28;20048;-76
2021/10/16 07:46:14;;;;;;;14.70;5.05;;;10.80;99.90;;;;;;5070887;28;20047;-76
2021/10/16 07:48:40;;;;;;;18.60;4.07;;;10.80;99.90;;;;;;5072286;28;20504;-76
2021/10/16 07:51:05;;;;;;;16.00;4.30;;;10.80;99.90;;;;;;5069918;28;20021;-76
2021/10/16 07:53:31;;;;;;;12.73;4.05;;;10.70;99.90;;;;;;5071930;28;20028;-76
2021/10/16 07:55:59;;;;;;;13.10;4.22;;;10.80;99.90;;;;;;5071748;28;20029;-77
2021/10/16 07:58:25;;;;;;;13.27;4.68;;;10.80;99.90;;;;;;5060750;28;20037;-75
2021/10/16 08:00:50;;;;;;;12.88;4.63;;;10.70;99.90;;;;;;5070162;28;20031;-75
2021/10/16 08:03:16;;;;;;;19.60;4.82;;;10.70;99.90;;;;;;5069173;28;20036;-76
2021/10/16 08:05:41;;;;;;;9.25;4.00;;;10.70;99.90;;;;;;5071273;28;20036;-76
2021/10/16 08:08:10;;;;;;;11.57;4.30;;;10.80;99.90;;;;;;5071584;28;20033;-76
2021/10/16 08:10:35;;;;;;;14.23;4.35;;;10.80;99.90;;;;;;5068478;28;20035;-76
2021/10/16 08:13:01;;;;;;;15.77;4.60;;;10.80;99.90;;;;;;5072861;28;20107;-77
2021/10/16 08:15:27;;;;;;;12.43;4.72;;;10.80;99.90;;;;;;5068869;28;20036;-75
2021/10/16 08:17:52;;;;;;;13.18;4.68;;;10.70;99.90;;;;;;5069194;28;20446;-76
2021/10/16 08:20:18;;;;;;;15.90;6.40;;;10.70;99.90;;;;;;5071430;28;20525;-76
2021/10/16 08:22:44;;;;;;;12.80;4.00;;;10.80;99.90;;;;;;5062206;28;20031;-76
2021/10/16 08:25:11;;;;;;;9.60;3.88;;;10.80;99.90;;;;;;5072592;28;20037;-75
2021/10/16 08:27:37;;;;;;;14.43;3.50;;;10.80;99.90;;;;;;5069392;28;20033;-75
2021/10/16 08:30:05;;;;;;;12.45;4.10;;;10.90;99.90;;;;;;5062809;28;20081;-76
2021/10/16 08:32:31;;;;;;;15.93;4.20;;;10.90;99.90;;;;;;5060689;28;20032;-75
2021/10/16 08:34:56;;;;;;;14.13;4.10;;;11.00;99.90;;;;;;5068985;28;20474;-76
2021/10/16 08:37:22;;;;;;;10.18;3.22;;;11.00;99.90;;;;;;5053536;28;20031;-75
2021/10/16 08:39:47;;;;;;;9.02;3.53;;;11.00;99.90;;;;;;5070154;28;20032;-77
2021/10/16 08:42:13;;;;;;;16.33;3.75;;;11.00;99.90;;;;;;5065927;28;20078;-75
2021/10/16 08:44:39;;;;;;;9.55;3.65;;;11.00;99.90;;;;;;5070587;28;20127;-75
2021/10/16 08:47:06;;;;;;;14.75;3.47;;;11.10;99.90;;;;;;5052977;28;20020;-75
2021/10/16 08:49:33;;;;;;;14.52;3.80;;;11.10;99.90;;;;;;5069332;28;20082;-76
2021/10/16 08:51:59;;;;;;;14.38;4.38;;;11.20;99.90;;;;;;5070988;28;20024;-75
2021/10/16 08:54:25;;;;;;;10.40;4.22;;;11.20;99.90;;;;;;5065970;28;20090;-75
2021/10/16 08:56:50;;;;;;;11.88;3.63;;;11.20;99.90;;;;;;5063366;28;20028;-74
2021/10/16 08:59:16;;;;;;;9.57;3.83;;;11.30;99.90;;;;;;5059883;28;20029;-76
2021/10/16 09:01:59;;;;;;;13.38;3.47;;;11.30;99.90;;;;;;5045704;28;20036;-75
2021/10/16 09:04:25;;;;;;;14.40;4.10;;;11.40;99.90;;;;;;5065535;28;20072;-76
2021/10/16 09:06:51;;;;;;;10.35;3.55;;;11.30;99.90;;;;;;5065464;28;20118;-76
2021/10/16 09:09:23;;;;;;;16.40;3.35;;;11.40;99.90;;;;;;5069691;28;20100;-74
2021/10/16 09:11:53;;;;;;;21.00;3.67;;;11.50;99.90;;;;;;5064605;28;20024;-76
2021/10/16 09:14:22;;;;;;;12.45;3.92;;;11.50;99.90;;;;;;5064119;28;20081;-75
2021/10/16 09:16:57;;;;;;;13.55;4.30;;;11.50;99.90;;;;;;5067720;28;20060;-76
2021/10/16 09:19:30;;;;;;;13.20;3.65;;;11.60;99.90;;;;;;5069479;28;20111;-76
2021/10/16 09:22:04;;;;;;;12.43;3.65;;;11.50;99.90;;;;;;5069695;28;20107;-75
2021/10/16 09:24:34;;;;;;;11.18;3.95;;;11.50;99.90;;;;;;5062527;28;20098;-75
2021/10/16 09:27:05;;;;;;;13.48;3.60;;;11.60;99.90;;;;;;5069545;28;20024;-75
2021/10/16 09:29:33;;;;;;;13.27;3.40;;;11.60;99.90;;;;;;5065598;28;20032;-75
2021/10/16 09:32:05;;;;;;;14.50;3.17;;;11.70;99.90;;;;;;5065772;28;20033;-75
2021/10/16 09:34:35;;;;;;;17.10;3.53;;;11.70;99.90;;;;;;5064461;28;20106;-76
2021/10/16 09:37:08;;;;;;;10.68;2.80;;;11.80;99.90;;;;;;5061486;28;20410;-75
2021/10/16 09:39:39;;;;;;;12.77;3.20;;;12.00;99.90;;;;;;5053986;28;20036;-75
2021/10/16 09:42:07;;;;;;;9.57;3.55;;;12.20;99.90;;;;;;5068560;28;20031;-76
2021/10/16 09:44:35;;;;;;;12.70;3.15;;;12.30;99.90;;;;;;5069497;28;20068;-75
2021/10/16 09:47:05;;;;;;;11.10;3.45;;;12.40;99.90;;;;;;5070066;28;20029;-75
2021/10/16 09:49:33;;;;;;;11.52;3.20;;;12.50;99.90;;;;;;5053352;28;20024;-76
2021/10/16 09:52:00;;;;;;;11.27;3.17;;;12.50;99.90;;;;;;5070612;28;20060;-75
2021/10/16 09:54:26;;;;;;;9.77;3.20;;;12.50;99.90;;;;;;5067482;28;20082;-76
2021/10/16 09:56:52;;;;;;;15.63;3.20;;;12.50;99.90;;;;;;5066271;28;20028;-75
2021/10/16 09:59:19;;;;;;;9.90;3.40;;;12.50;99.90;;;;;;5066339;28;20021;-75
2021/10/16 10:01:46;;;;;;;11.25;2.65;;;12.50;99.90;;;;;;5067171;28;20029;-76
2021/10/16 10:04:14;;;;;;;12.23;3.03;;;12.50;99.90;;;;;;5047542;28;20033;-75
2021/10/16 10:06:41;;;;;;;14.40;2.60;;;12.50;99.90;;;;;;5060903;28;20013;-75
2021/10/16 10:09:07;;;;;;;14.45;3.83;;;12.40;99.90;;;;;;5061213;28;20055;-75
2021/10/16 10:11:35;;;;;;;14.60;4.05;;;12.30;99.90;;;;;;5064703;28;20060;-75
2021/10/16 10:14:02;;;;;;;12.70;2.92;;;12.30;99.90;;;;;;5068202;28;20025;-75
2021/10/16 10:16:31;;;;;;;10.70;3.25;;;12.40;99.90;;;;;;5068907;28;20028;-76
2021/10/16 10:19:03;;;;;;;10.68;3.28;;;12.40;99.90;;;;;;5070837;28;20453;-75
2021/10/16 10:21:37;;;;;;;7.60;2.70;;;12.40;99.90;;;;;;5066341;28;20037;-75
2021/10/16 10:24:05;;;;;;;11.77;3.47;;;12.50;99.90;;;;;;5068890;28;20123;-75
2021/10/16 10:26:38;;;;;;;14.15;3.72;;;12.50;99.90;;;;;;5069388;28;20016;-76
2021/10/16 10:29:05;;;;;;;11.07;3.47;;;12.50;99.90;;;;;;5069436;28;20056;-76
2021/10/16 10:31:49;;;;;;;16.85;4.22;;;12.50;99.90;;;;;;5069185;28;20025;-76
2021/10/16 10:34:18;;;;;;;11.18;4.05;;;12.50;99.90;;;;;;5061853;28;20032;-75
2021/10/16 10:36:47;;;;;;;9.95;4.00;;;12.50;99.90;;;;;;5073024;28;20090;-76
2021/10/16 10:39:34;;;;;;;12.20;4.10;;;12.40;99.90;;;;;;5067582;28;20449;-75
2021/10/16 10:42:00;;;;;;;15.60;4.80;;;12.40;99.90;;;;;;5068961;28;20477;-74
2021/10/16 10:44:40;;;;;;;14.05;4.72;;;12.50;99.90;;;;;;5068965;28;20107;-76
2021/10/16 10:47:25;;;;;;;17.02;6.13;;;12.50;99.90;;;;;;5054804;28;20020;-75
2021/10/16 10:49:52;;;;;;;11.73;3.58;;;12.50;99.90;;;;;;5068887;28;20039;-74
2021/10/16 10:52:19;;;;;;;19.50;4.68;;;12.60;99.90;;;;;;5070842;28;20426;-75
2021/10/16 10:55:13;;;;;;;11.80;3.58;;;12.60;99.90;;;;;;5069393;28;20033;-75
2021/10/16 10:57:45;;;;;;;9.38;4.07;;;12.70;99.90;;;;;;5062679;28;20040;-76
2021/10/16 11:00:12;;;;;;;10.45;3.67;;;12.70;99.90;;;;;;5052906;28;20384;-75
2021/10/16 11:02:39;;;;;;;11.95;4.28;;;12.70;99.90;;;;;;5068726;28;20016;-76
2021/10/16 11:05:35;;;;;;;13.55;5.10;;;12.70;99.90;;;;;;5067646;28;20040;-75
2021/10/16 11:08:14;;;;;;;13.85;4.85;;;12.80;99.90;;;;;;5055060;28;20082;-75
2021/10/16 11:10:41;;;;;;;11.63;4.30;;;12.80;99.90;;;;;;5068775;28;20470;-76
2021/10/16 11:13:18;;;;;;;12.55;4.05;;;12.60;99.90;;;;;;5073629;28;20564;-74
2021/10/16 11:15:54;;;;;;;11.38;3.90;;;12.50;99.90;;;;;;5069510;28;20032;-74
2021/10/16 11:18:20;;;;;;;15.68;4.03;;;12.50;99.90;;;;;;5067900;28;20459;-74
2021/10/16 11:20:46;;;;;;;15.52;4.25;;;12.50;99.90;;;;;;5067918;28;20108;-74
2021/10/16 11:23:22;;;;;;;13.15;3.90;;;12.50;99.90;;;;;;5067664;28;20078;-75
2021/10/16 11:25:58;;;;;;;9.95;3.55;;;12.40;99.90;;;;;;5065857;28;20037;-74
2021/10/16 11:28:24;;;;;;;12.32;4.53;;;12.40;99.90;;;;;;5070402;28;20374;-74
2021/10/16 11:30:51;;;;;;;19.27;5.20;;;12.40;99.90;;;;;;5068102;28;20025;-74
2021/10/16 11:33:21;;;;;;;13.38;4.60;;;12.30;99.90;;;;;;5065170;28;20032;-75
2021/10/16 11:35:49;;;;;;;18.67;5.32;;;12.30;99.90;;;;;;5069882;28;20024;-76
2021/10/16 11:38:16;;;;;;;16.73;4.45;;;12.30;99.90;;;;;;5071299;28;20086;-75
2021/10/16 11:40:42;;;;;;;14.25;4.03;;;12.40;99.90;;;;;;5062868;28;20021;-75
2021/10/16 11:43:13;;;;;;;13.40;4.50;;;12.50;99.90;;;;;;5073721;28;20114;-75
2021/10/16 11:45:41;;;;;;;11.75;4.00;;;12.40;99.90;;;;;;5068380;28;20516;-76
2021/10/16 11:48:12;;;;;;;15.18;4.65;;;12.50;99.90;;;;;;5050313;28;20073;-75
2021/10/16 11:50:37;;;;;;;;;;;12.50;99.90;;;;;;5070535;28;20033;-76
2021/10/16 11:53:21;;;;;;;10.73;4.00;;;12.50;99.90;;;;;;5070062;28;19916;-74
2021/10/16 11:55:48;;;;;;;12.65;4.43;;;12.30;99.90;;;;;;5060146;28;20037;-75
2021/10/16 11:58:18;;;;;;;10.43;3.97;;;12.30;99.90;;;;;;5072813;28;20017;-75
2021/10/16 12:00:49;;;;;;;15.18;4.55;;;12.30;99.90;;;;;;5069308;28;20056;-76
2021/10/16 12:03:40;;;;;;;16.67;4.75;;;12.40;99.90;;;;;;5063698;28;20533;-74
2021/10/16 12:06:16;;;;;;;;;;;12.40;99.90;;;;;;5061015;28;20086;-74
2021/10/16 12:08:41;;;;;;;17.58;4.88;;;12.50;99.90;;;;;;5066673;28;19909;-74
2021/10/16 12:11:07;;;;;;;11.93;4.78;;;12.60;99.90;;;;;;5070697;28;20028;-76
2021/10/16 12:14:06;;;;;;;12.43;4.65;;;12.50;99.90;;;;;;5059859;28;20032;-74
2021/10/16 12:16:36;;;;;;;17.45;5.25;;;12.40;99.90;;;;;;5064761;28;20036;-76
2021/10/16 12:19:05;;;;;;;13.15;4.53;;;12.40;99.90;;;;;;5050702;28;20024;-75
2021/10/16 12:21:34;;;;;;;17.67;5.03;;;12.50;99.90;;;;;;5068671;28;20028;-76
2021/10/16 12:24:02;;;;;;;12.30;4.32;;;12.30;99.90;;;;;;5067591;28;20068;-74
2021/10/16 12:26:37;;;;;;;20.63;5.43;;;12.30;99.90;;;;;;5064605;28;20036;-76
2021/10/16 12:29:28;;;;;;;13.75;4.35;;;12.40;99.90;;;;;;5066359;28;20056;-74
2021/10/16 12:31:54;;;;;;;10.82;4.70;;;12.30;99.90;;;;;;5043900;28;20497;-74
2021/10/16 12:34:24;;;;;;;18.15;5.30;;;12.30;99.90;;;;;;5069877;28;20028;-74
2021/10/16 12:37:07;;;;;;;14.07;5.70;;;12.30;99.90;;;;;;5071086;28;20028;-76
2021/10/16 12:39:35;;;;;;;11.02;4.93;;;12.30;99.90;;;;;;5054304;28;20028;-74
2021/10/16 12:42:13;;;;;;;15.73;7.07;;;12.30;99.90;;;;;;5060122;28;20115;-74